sensor_id;sensor_type;location;lat;lon;timestamp;temperature;humidity
22321;DHT22;11328;53.928;18.522;2022-09-20T00:01:28;10.60;99.90
22321;DHT22;11328;53.928;18.522;2022-09-20T00:04:00;10.60;99.90
22321;DHT22;11328;53.928;18.522;2022-09-20T00:06:31;10.60;99.90
22321;DHT22;11328;53.928;18.522;2022-09-20T00:08:59;10.60;99.90
22321;DHT22;11328;53.928;18.522;2022-09-20T00:11:30;10.60;99.90
22321;DHT22;11328;53.928;18.522;2022-09-20T00:14:00;10.50;99.90
22321;DHT22;11328;53.928;18.522;2022-09-20T00:16:30;10.50;99.90
22321;DHT22;11328;53.928;18.522;2022-09-20T00:19:01;10.50;99.90
22321;DHT22;11328;53.928;18.522;2022-09-20T00:21:31;10.40;99.90
22321;DHT22;11328;53.928;18.522;2022-09-20T00:23:59;10.50;99.90
22321;DHT22;11328;53.928;18.522;2022-09-20T00:26:27;10.50;99.90
22321;DHT22;11328;53.928;18.522;2022-09-20T00:28:56;10.40;99.90
22321;DHT22;11328;53.928;18.522;2022-09-20T00:31:24;10.40;99.90
22321;DHT22;11328;53.928;18.522;2022-09-20T00:33:55;10.30;99.90
22321;DHT22;11328;53.928;18.522;2022-09-20T00:36:43;10.30;99.90
22321;DHT22;11328;53.928;18.522;2022-09-20T00:39:12;10.40;99.90
22321;DHT22;11328;53.928;18.522;2022-09-20T00:41:40;10.40;99.90
22321;DHT22;11328;53.928;18.522;2022-09-20T00:53:01;10.40;99.90
22321;DHT22;11328;53.928;18.522;2022-09-20T00:55:34;10.40;99.90
22321;DHT22;11328;53.928;18.522;2022-09-20T00:58:07;10.40;99.90
22321;DHT22;11328;53.928;18.522;2022-09-20T01:00:36;10.30;99.90
22321;DHT22;11328;53.928;18.522;2022-09-20T01:03:07;10.30;99.90
22321;DHT22;11328;53.928;18.522;2022-09-20T01:05:37;10.20;99.90
22321;DHT22;11328;53.928;18.522;2022-09-20T01:08:05;10.20;99.90
22321;DHT22;11328;53.928;18.522;2022-09-20T01:10:35;10.20;99.90
22321;DHT22;11328;53.928;18.522;2022-09-20T01:13:03;10.20;99.90
22321;DHT22;11328;53.928;18.522;2022-09-20T01:15:32;10.10;99.90
22321;DHT22;11328;53.928;18.522;2022-09-20T01:18:01;10.20;99.90
22321;DHT22;11328;53.928;18.522;2022-09-20T01:20:33;10.30;99.90
22321;DHT22;11328;53.928;18.522;2022-09-20T01:23:25;10.30;99.90
22321;DHT22;11328;53.928;18.522;2022-09-20T01:32:43;10.30;99.90
22321;DHT22;11328;53.928;18.522;2022-09-20T01:35:22;10.30;99.90
22321;DHT22;11328;53.928;18.522;2022-09-20T01:41:07;10.30;99.90
22321;DHT22;11328;53.928;18.522;2022-09-20T01:46:43;10.20;99.90
22321;DHT22;11328;53.928;18.522;2022-09-20T02:07:14;10.10;99.90
22321;DHT22;11328;53.928;18.522;2022-09-20T02:10:37;10.00;99.90
22321;DHT22;11328;53.928;18.522;2022-09-20T02:16:35;10.10;99.90
22321;DHT22;11328;53.928;18.522;2022-09-20T02:25:22;10.10;99.90
22321;DHT22;11328;53.928;18.522;2022-09-20T02:31:38;10.10;99.90
22321;DHT22;11328;53.928;18.522;2022-09-20T02:43:43;10.20;99.90
22321;DHT22;11328;53.928;18.522;2022-09-20T02:46:51;10.10;99.90
22321;DHT22;11328;53.928;18.522;2022-09-20T02:49:55;10.10;99.90
22321;DHT22;11328;53.928;18.522;2022-09-20T02:59:06;10.10;99.90
22321;DHT22;11328;53.928;18.522;2022-09-20T03:02:22;10.00;99.90
22321;DHT22;11328;53.928;18.522;2022-09-20T03:05:07;10.00;99.90
22321;DHT22;11328;53.928;18.522;2022-09-20T03:08:07;10.00;99.90
22321;DHT22;11328;53.928;18.522;2022-09-20T03:11:11;10.00;99.90
22321;DHT22;11328;53.928;18.522;2022-09-20T03:26:06;10.00;99.90
22321;DHT22;11328;53.928;18.522;2022-09-20T03:31:21;10.00;99.90
22321;DHT22;11328;53.928;18.522;2022-09-20T03:46:27;10.00;99.90
22321;DHT22;11328;53.928;18.522;2022-09-20T04:04:46;10.00;99.90
22321;DHT22;11328;53.928;18.522;2022-09-20T04:13:38;10.00;99.90
22321;DHT22;11328;53.928;18.522;2022-09-20T04:21:52;10.10;99.90
22321;DHT22;11328;53.928;18.522;2022-09-20T04:27:22;10.00;99.90
22321;DHT22;11328;53.928;18.522;2022-09-20T04:38:13;10.20;99.90
22321;DHT22;11328;53.928;18.522;2022-09-20T04:53:50;10.00;99.90
22321;DHT22;11328;53.928;18.522;2022-09-20T04:56:48;10.00;99.90
22321;DHT22;11328;53.928;18.522;2022-09-20T05:02:36;9.90;99.90
22321;DHT22;11328;53.928;18.522;2022-09-20T05:17:49;9.80;99.90
22321;DHT22;11328;53.928;18.522;2022-09-20T05:24:29;9.80;99.90
22321;DHT22;11328;53.928;18.522;2022-09-20T05:27:41;9.90;99.90
22321;DHT22;11328;53.928;18.522;2022-09-20T05:33:19;10.10;99.90
22321;DHT22;11328;53.928;18.522;2022-09-20T05:38:47;10.30;99.90
22321;DHT22;11328;53.928;18.522;2022-09-20T05:41:42;10.30;99.90
22321;DHT22;11328;53.928;18.522;2022-09-20T05:47:01;10.40;99.90
22321;DHT22;11328;53.928;18.522;2022-09-20T06:14:52;11.10;99.90
22321;DHT22;11328;53.928;18.522;2022-09-20T06:20:47;11.20;99.90
22321;DHT22;11328;53.928;18.522;2022-09-20T06:23:34;11.20;99.90
22321;DHT22;11328;53.928;18.522;2022-09-20T06:26:09;11.30;99.90
22321;DHT22;11328;53.928;18.522;2022-09-20T06:28:47;11.20;99.90
22321;DHT22;11328;53.928;18.522;2022-09-20T06:31:23;11.30;99.90
22321;DHT22;11328;53.928;18.522;2022-09-20T06:33:58;11.30;99.90
22321;DHT22;11328;53.928;18.522;2022-09-20T06:36:34;11.40;99.90
22321;DHT22;11328;53.928;18.522;2022-09-20T06:42:33;11.40;99.90
22321;DHT22;11328;53.928;18.522;2022-09-20T06:45:01;11.40;99.90
22321;DHT22;11328;53.928;18.522;2022-09-20T06:47:29;11.50;99.90
22321;DHT22;11328;53.928;18.522;2022-09-20T06:49:56;11.60;99.90
22321;DHT22;11328;53.928;18.522;2022-09-20T06:52:24;11.70;99.90
22321;DHT22;11328;53.928;18.522;2022-09-20T06:54:53;11.80;99.90
22321;DHT22;11328;53.928;18.522;2022-09-20T06:57:34;11.80;99.90
22321;DHT22;11328;53.928;18.522;2022-09-20T07:00:05;11.90;99.90
22321;DHT22;11328;53.928;18.522;2022-09-20T07:02:35;12.00;99.90
22321;DHT22;11328;53.928;18.522;2022-09-20T07:05:02;12.20;99.90
22321;DHT22;11328;53.928;18.522;2022-09-20T07:07:33;12.20;99.90
22321;DHT22;11328;53.928;18.522;2022-09-20T07:10:00;12.30;99.90
22321;DHT22;11328;53.928;18.522;2022-09-20T07:12:28;12.30;99.90
22321;DHT22;11328;53.928;18.522;2022-09-20T07:14:59;12.30;99.90
22321;DHT22;11328;53.928;18.522;2022-09-20T07:17:26;12.50;99.90
22321;DHT22;11328;53.928;18.522;2022-09-20T07:19:53;12.60;99.90
22321;DHT22;11328;53.928;18.522;2022-09-20T07:22:22;12.70;99.90
22321;DHT22;11328;53.928;18.522;2022-09-20T07:24:49;12.70;99.90
22321;DHT22;11328;53.928;18.522;2022-09-20T07:27:16;12.80;99.90
22321;DHT22;11328;53.928;18.522;2022-09-20T07:29:43;13.00;99.90
22321;DHT22;11328;53.928;18.522;2022-09-20T07:32:11;13.10;99.90
22321;DHT22;11328;53.928;18.522;2022-09-20T07:34:39;13.00;99.90
22321;DHT22;11328;53.928;18.522;2022-09-20T07:37:06;12.90;99.90
22321;DHT22;11328;53.928;18.522;2022-09-20T07:39:35;12.80;99.90
22321;DHT22;11328;53.928;18.522;2022-09-20T07:42:07;12.80;99.90
22321;DHT22;11328;53.928;18.522;2022-09-20T07:44:34;12.80;99.90
22321;DHT22;11328;53.928;18.522;2022-09-20T07:47:01;13.00;99.90
22321;DHT22;11328;53.928;18.522;2022-09-20T07:49:28;13.10;99.90
22321;DHT22;11328;53.928;18.522;2022-09-20T07:51:57;13.10;99.90
22321;DHT22;11328;53.928;18.522;2022-09-20T07:54:24;13.40;99.90
22321;DHT22;11328;53.928;18.522;2022-09-20T07:56:53;13.40;99.90
22321;DHT22;11328;53.928;18.522;2022-09-20T07:59:20;13.60;99.90
22321;DHT22;11328;53.928;18.522;2022-09-20T08:01:48;14.00;99.90
22321;DHT22;11328;53.928;18.522;2022-09-20T08:04:15;14.30;99.90
22321;DHT22;11328;53.928;18.522;2022-09-20T08:06:43;14.50;99.90
22321;DHT22;11328;53.928;18.522;2022-09-20T08:09:13;14.70;99.90
22321;DHT22;11328;53.928;18.522;2022-09-20T08:11:41;14.80;99.90
22321;DHT22;11328;53.928;18.522;2022-09-20T08:14:13;14.90;99.90
22321;DHT22;11328;53.928;18.522;2022-09-20T08:16:46;15.20;99.90
22321;DHT22;11328;53.928;18.522;2022-09-20T08:19:21;15.50;99.90
22321;DHT22;11328;53.928;18.522;2022-09-20T08:21:50;15.60;99.90
22321;DHT22;11328;53.928;18.522;2022-09-20T08:24:18;15.80;99.90
22321;DHT22;11328;53.928;18.522;2022-09-20T08:26:46;15.90;99.90
22321;DHT22;11328;53.928;18.522;2022-09-20T08:29:14;16.10;99.90
22321;DHT22;11328;53.928;18.522;2022-09-20T08:31:41;16.20;99.90
22321;DHT22;11328;53.928;18.522;2022-09-20T08:34:11;16.20;99.90
22321;DHT22;11328;53.928;18.522;2022-09-20T08:36:41;16.20;99.90
22321;DHT22;11328;53.928;18.522;2022-09-20T08:39:15;16.40;99.90
22321;DHT22;11328;53.928;18.522;2022-09-20T08:45:27;16.30;99.90
22321;DHT22;11328;53.928;18.522;2022-09-20T08:48:04;16.90;99.90
22321;DHT22;11328;53.928;18.522;2022-09-20T08:50:35;17.10;99.90
22321;DHT22;11328;53.928;18.522;2022-09-20T08:53:03;17.00;99.90
22321;DHT22;11328;53.928;18.522;2022-09-20T08:55:31;17.10;99.90
22321;DHT22;11328;53.928;18.522;2022-09-20T08:58:03;17.10;99.90
22321;DHT22;11328;53.928;18.522;2022-09-20T09:00:35;17.00;99.90
22321;DHT22;11328;53.928;18.522;2022-09-20T09:03:06;17.30;99.90
22321;DHT22;11328;53.928;18.522;2022-09-20T09:05:48;17.30;99.90
22321;DHT22;11328;53.928;18.522;2022-09-20T09:08:20;17.60;99.90
22321;DHT22;11328;53.928;18.522;2022-09-20T09:10:57;17.80;99.90
22321;DHT22;11328;53.928;18.522;2022-09-20T09:13:42;17.70;99.90
22321;DHT22;11328;53.928;18.522;2022-09-20T09:16:23;17.90;99.90
22321;DHT22;11328;53.928;18.522;2022-09-20T09:30:41;17.80;99.90
22321;DHT22;11328;53.928;18.522;2022-09-20T09:33:33;18.00;99.90
22321;DHT22;11328;53.928;18.522;2022-09-20T09:36:15;18.30;99.90
22321;DHT22;11328;53.928;18.522;2022-09-20T09:38:48;18.50;99.90
22321;DHT22;11328;53.928;18.522;2022-09-20T09:41:28;18.40;99.90
22321;DHT22;11328;53.928;18.522;2022-09-20T09:43:59;18.10;99.90
22321;DHT22;11328;53.928;18.522;2022-09-20T09:46:38;18.10;99.90
22321;DHT22;11328;53.928;18.522;2022-09-20T10:00:19;18.70;99.90
22321;DHT22;11328;53.928;18.522;2022-09-20T10:08:59;18.70;99.90
22321;DHT22;11328;53.928;18.522;2022-09-20T10:12:01;18.50;99.90
22321;DHT22;11328;53.928;18.522;2022-09-20T10:26:52;18.90;99.90
22321;DHT22;11328;53.928;18.522;2022-09-20T10:29:30;18.90;99.90
22321;DHT22;11328;53.928;18.522;2022-09-20T10:44:39;19.10;99.90
22321;DHT22;11328;53.928;18.522;2022-09-20T10:47:19;19.60;99.90
22321;DHT22;11328;53.928;18.522;2022-09-20T10:50:12;19.50;99.90
22321;DHT22;11328;53.928;18.522;2022-09-20T10:56:32;18.40;99.90
22321;DHT22;11328;53.928;18.522;2022-09-20T11:08:34;16.90;99.90
22321;DHT22;11328;53.928;18.522;2022-09-20T11:11:15;17.00;99.90
22321;DHT22;11328;53.928;18.522;2022-09-20T11:13:58;16.90;99.90
22321;DHT22;11328;53.928;18.522;2022-09-20T11:22:29;16.80;99.90
22321;DHT22;11328;53.928;18.522;2022-09-20T11:25:28;16.90;99.90
22321;DHT22;11328;53.928;18.522;2022-09-20T11:28:30;17.10;99.90
22321;DHT22;11328;53.928;18.522;2022-09-20T11:33:44;17.50;99.90
22321;DHT22;11328;53.928;18.522;2022-09-20T11:36:26;17.70;99.90
22321;DHT22;11328;53.928;18.522;2022-09-20T11:42:28;17.80;99.90
22321;DHT22;11328;53.928;18.522;2022-09-20T11:44:58;17.50;99.90
22321;DHT22;11328;53.928;18.522;2022-09-20T11:56:36;17.30;99.90
22321;DHT22;11328;53.928;18.522;2022-09-20T11:59:06;17.10;99.90
22321;DHT22;11328;53.928;18.522;2022-09-20T12:01:54;17.00;99.90
22321;DHT22;11328;53.928;18.522;2022-09-20T12:04:30;16.80;99.90
22321;DHT22;11328;53.928;18.522;2022-09-20T12:09:59;16.70;99.90
22321;DHT22;11328;53.928;18.522;2022-09-20T12:12:39;16.40;99.90
22321;DHT22;11328;53.928;18.522;2022-09-20T12:15:39;16.30;99.90
22321;DHT22;11328;53.928;18.522;2022-09-20T12:18:13;16.40;99.90
22321;DHT22;11328;53.928;18.522;2022-09-20T12:21:03;16.00;99.90
22321;DHT22;11328;53.928;18.522;2022-09-20T12:23:46;15.80;99.90
22321;DHT22;11328;53.928;18.522;2022-09-20T12:32:02;16.20;99.90
22321;DHT22;11328;53.928;18.522;2022-09-20T12:34:56;16.20;99.90
22321;DHT22;11328;53.928;18.522;2022-09-20T12:37:24;16.40;99.90
22321;DHT22;11328;53.928;18.522;2022-09-20T12:39:53;16.60;99.90
22321;DHT22;11328;53.928;18.522;2022-09-20T12:42:32;16.40;99.90
22321;DHT22;11328;53.928;18.522;2022-09-20T12:45:05;16.50;99.90
22321;DHT22;11328;53.928;18.522;2022-09-20T12:47:52;16.50;99.90
22321;DHT22;11328;53.928;18.522;2022-09-20T12:50:22;16.50;99.90
22321;DHT22;11328;53.928;18.522;2022-09-20T12:53:15;16.60;99.90
22321;DHT22;11328;53.928;18.522;2022-09-20T15:21:51;16.20;99.90
22321;DHT22;11328;53.928;18.522;2022-09-20T15:24:21;16.60;99.90
22321;DHT22;11328;53.928;18.522;2022-09-20T15:47:15;15.60;99.90
22321;DHT22;11328;53.928;18.522;2022-09-20T16:02:53;15.20;99.90
22321;DHT22;11328;53.928;18.522;2022-09-20T16:05:20;15.80;99.90
22321;DHT22;11328;53.928;18.522;2022-09-20T16:07:47;15.60;99.90
22321;DHT22;11328;53.928;18.522;2022-09-20T16:10:14;15.50;99.90
22321;DHT22;11328;53.928;18.522;2022-09-20T16:12:41;15.40;99.90
22321;DHT22;11328;53.928;18.522;2022-09-20T16:15:09;15.30;99.90
22321;DHT22;11328;53.928;18.522;2022-09-20T16:17:36;15.20;99.90
22321;DHT22;11328;53.928;18.522;2022-09-20T16:20:21;15.20;99.90
22321;DHT22;11328;53.928;18.522;2022-09-20T16:22:49;15.20;99.90
22321;DHT22;11328;53.928;18.522;2022-09-20T16:25:16;15.20;99.90
22321;DHT22;11328;53.928;18.522;2022-09-20T16:27:43;15.20;99.90
22321;DHT22;11328;53.928;18.522;2022-09-20T16:30:10;15.10;99.90
22321;DHT22;11328;53.928;18.522;2022-09-20T16:32:37;15.00;99.90
22321;DHT22;11328;53.928;18.522;2022-09-20T16:35:05;15.00;99.90
22321;DHT22;11328;53.928;18.522;2022-09-20T16:37:33;15.00;99.90
22321;DHT22;11328;53.928;18.522;2022-09-20T16:40:13;14.90;99.90
22321;DHT22;11328;53.928;18.522;2022-09-20T16:42:40;14.80;99.90
22321;DHT22;11328;53.928;18.522;2022-09-20T16:45:08;14.80;99.90
22321;DHT22;11328;53.928;18.522;2022-09-20T16:47:35;14.80;99.90
22321;DHT22;11328;53.928;18.522;2022-09-20T16:50:06;14.60;99.90
22321;DHT22;11328;53.928;18.522;2022-09-20T16:52:35;14.60;99.90
22321;DHT22;11328;53.928;18.522;2022-09-20T16:55:04;14.50;99.90
22321;DHT22;11328;53.928;18.522;2022-09-20T16:57:31;14.40;99.90
22321;DHT22;11328;53.928;18.522;2022-09-20T16:59:58;14.30;99.90
22321;DHT22;11328;53.928;18.522;2022-09-20T17:02:26;14.10;99.90
22321;DHT22;11328;53.928;18.522;2022-09-20T17:04:53;14.00;99.90
22321;DHT22;11328;53.928;18.522;2022-09-20T17:07:20;13.90;99.90
22321;DHT22;11328;53.928;18.522;2022-09-20T17:09:49;13.90;99.90
22321;DHT22;11328;53.928;18.522;2022-09-20T17:12:16;13.80;99.90
22321;DHT22;11328;53.928;18.522;2022-09-20T17:14:47;13.80;99.90
22321;DHT22;11328;53.928;18.522;2022-09-20T17:17:14;13.70;99.90
22321;DHT22;11328;53.928;18.522;2022-09-20T17:19:41;13.70;99.90
22321;DHT22;11328;53.928;18.522;2022-09-20T17:22:14;13.60;99.90
22321;DHT22;11328;53.928;18.522;2022-09-20T17:24:43;13.60;99.90
22321;DHT22;11328;53.928;18.522;2022-09-20T17:27:10;13.50;99.90
22321;DHT22;11328;53.928;18.522;2022-09-20T17:29:38;13.40;99.90
22321;DHT22;11328;53.928;18.522;2022-09-20T17:32:05;13.40;99.90
22321;DHT22;11328;53.928;18.522;2022-09-20T17:34:32;13.40;99.90
22321;DHT22;11328;53.928;18.522;2022-09-20T17:36:59;13.30;99.90
22321;DHT22;11328;53.928;18.522;2022-09-20T17:39:27;13.30;99.90
22321;DHT22;11328;53.928;18.522;2022-09-20T17:41:54;13.30;99.90
22321;DHT22;11328;53.928;18.522;2022-09-20T17:44:21;13.30;99.90
22321;DHT22;11328;53.928;18.522;2022-09-20T17:46:49;13.30;99.90
22321;DHT22;11328;53.928;18.522;2022-09-20T17:49:19;13.30;99.90
22321;DHT22;11328;53.928;18.522;2022-09-20T17:51:52;13.30;99.90
22321;DHT22;11328;53.928;18.522;2022-09-20T17:54:21;13.30;99.90
22321;DHT22;11328;53.928;18.522;2022-09-20T17:56:52;13.30;99.90
22321;DHT22;11328;53.928;18.522;2022-09-20T17:59:21;13.20;99.90
22321;DHT22;11328;53.928;18.522;2022-09-20T18:01:49;13.20;99.90
22321;DHT22;11328;53.928;18.522;2022-09-20T18:04:17;13.10;99.90
22321;DHT22;11328;53.928;18.522;2022-09-20T18:06:49;13.10;99.90
22321;DHT22;11328;53.928;18.522;2022-09-20T18:09:19;13.10;99.90
22321;DHT22;11328;53.928;18.522;2022-09-20T18:11:50;13.10;99.90
22321;DHT22;11328;53.928;18.522;2022-09-20T18:14:24;13.10;99.90
22321;DHT22;11328;53.928;18.522;2022-09-20T18:16:58;13.10;99.90
22321;DHT22;11328;53.928;18.522;2022-09-20T18:19:27;13.00;99.90
22321;DHT22;11328;53.928;18.522;2022-09-20T18:22:00;13.00;99.90
22321;DHT22;11328;53.928;18.522;2022-09-20T18:24:28;13.00;99.90
22321;DHT22;11328;53.928;18.522;2022-09-20T18:26:56;13.00;99.90
22321;DHT22;11328;53.928;18.522;2022-09-20T18:29:24;13.00;99.90
22321;DHT22;11328;53.928;18.522;2022-09-20T18:31:52;12.90;99.90
22321;DHT22;11328;53.928;18.522;2022-09-20T18:34:25;12.80;99.90
22321;DHT22;11328;53.928;18.522;2022-09-20T18:37:00;12.80;99.90
22321;DHT22;11328;53.928;18.522;2022-09-20T18:39:30;12.80;99.90
22321;DHT22;11328;53.928;18.522;2022-09-20T18:41:59;12.70;99.90
22321;DHT22;11328;53.928;18.522;2022-09-20T18:44:28;12.70;99.90
22321;DHT22;11328;53.928;18.522;2022-09-20T18:47:01;12.70;99.90
22321;DHT22;11328;53.928;18.522;2022-09-20T18:49:30;12.70;99.90
22321;DHT22;11328;53.928;18.522;2022-09-20T18:51:57;12.70;99.90
22321;DHT22;11328;53.928;18.522;2022-09-20T18:54:27;12.70;99.90
22321;DHT22;11328;53.928;18.522;2022-09-20T18:56:59;12.70;99.90
22321;DHT22;11328;53.928;18.522;2022-09-20T18:59:27;12.60;99.90
22321;DHT22;11328;53.928;18.522;2022-09-20T19:05:15;12.60;99.90
22321;DHT22;11328;53.928;18.522;2022-09-20T19:08:48;12.50;99.90
22321;DHT22;11328;53.928;18.522;2022-09-20T19:11:08;12.40;99.90
22321;DHT22;11328;53.928;18.522;2022-09-20T19:13:46;12.40;99.90
22321;DHT22;11328;53.928;18.522;2022-09-20T19:16:28;12.30;99.90
22321;DHT22;11328;53.928;18.522;2022-09-20T19:19:26;12.30;99.90
22321;DHT22;11328;53.928;18.522;2022-09-20T19:25:39;12.40;99.90
22321;DHT22;11328;53.928;18.522;2022-09-20T19:28:11;12.40;99.90
22321;DHT22;11328;53.928;18.522;2022-09-20T19:30:41;12.40;99.90
22321;DHT22;11328;53.928;18.522;2022-09-20T19:33:15;12.40;99.90
22321;DHT22;11328;53.928;18.522;2022-09-20T19:35:50;12.40;99.90
22321;DHT22;11328;53.928;18.522;2022-09-20T19:39:11;12.40;99.90
22321;DHT22;11328;53.928;18.522;2022-09-20T19:41:45;12.40;99.90
22321;DHT22;11328;53.928;18.522;2022-09-20T19:47:51;12.40;99.90
22321;DHT22;11328;53.928;18.522;2022-09-20T19:50:44;12.30;99.90
22321;DHT22;11328;53.928;18.522;2022-09-20T19:53:16;12.30;99.90
22321;DHT22;11328;53.928;18.522;2022-09-20T19:55:58;12.40;99.90
22321;DHT22;11328;53.928;18.522;2022-09-20T19:58:29;12.30;99.90
22321;DHT22;11328;53.928;18.522;2022-09-20T20:00:56;12.30;99.90
22321;DHT22;11328;53.928;18.522;2022-09-20T20:03:24;12.20;99.90
22321;DHT22;11328;53.928;18.522;2022-09-20T20:06:02;12.20;99.90
22321;DHT22;11328;53.928;18.522;2022-09-20T20:08:53;12.20;99.90
22321;DHT22;11328;53.928;18.522;2022-09-20T20:11:42;12.10;99.90
22321;DHT22;11328;53.928;18.522;2022-09-20T20:14:22;12.10;99.90
22321;DHT22;11328;53.928;18.522;2022-09-20T20:17:10;12.10;99.90
22321;DHT22;11328;53.928;18.522;2022-09-20T20:20:22;12.10;99.90
22321;DHT22;11328;53.928;18.522;2022-09-20T20:23:07;12.10;99.90
22321;DHT22;11328;53.928;18.522;2022-09-20T20:28:35;12.10;99.90
22321;DHT22;11328;53.928;18.522;2022-09-20T20:31:04;12.00;99.90
22321;DHT22;11328;53.928;18.522;2022-09-20T20:33:32;12.00;99.90
22321;DHT22;11328;53.928;18.522;2022-09-20T20:36:00;12.00;99.90
22321;DHT22;11328;53.928;18.522;2022-09-20T20:38:28;12.00;99.90
22321;DHT22;11328;53.928;18.522;2022-09-20T20:41:03;12.00;99.90
22321;DHT22;11328;53.928;18.522;2022-09-20T20:43:31;12.00;99.90
22321;DHT22;11328;53.928;18.522;2022-09-20T20:46:02;12.00;99.90
22321;DHT22;11328;53.928;18.522;2022-09-20T20:48:31;12.00;99.90
22321;DHT22;11328;53.928;18.522;2022-09-20T20:51:12;12.00;99.90
22321;DHT22;11328;53.928;18.522;2022-09-20T20:53:46;12.00;99.90
22321;DHT22;11328;53.928;18.522;2022-09-20T20:56:18;12.00;99.90
22321;DHT22;11328;53.928;18.522;2022-09-20T20:58:54;12.00;99.90
22321;DHT22;11328;53.928;18.522;2022-09-20T21:01:37;12.00;99.90
22321;DHT22;11328;53.928;18.522;2022-09-20T21:04:12;11.90;99.90
22321;DHT22;11328;53.928;18.522;2022-09-20T21:06:41;11.90;99.90
22321;DHT22;11328;53.928;18.522;2022-09-20T21:09:09;11.90;99.90
22321;DHT22;11328;53.928;18.522;2022-09-20T21:11:40;11.80;99.90
22321;DHT22;11328;53.928;18.522;2022-09-20T21:14:11;11.90;99.90
22321;DHT22;11328;53.928;18.522;2022-09-20T21:16:40;11.90;99.90
22321;DHT22;11328;53.928;18.522;2022-09-20T21:19:10;11.80;99.90
22321;DHT22;11328;53.928;18.522;2022-09-20T21:21:45;11.80;99.90
22321;DHT22;11328;53.928;18.522;2022-09-20T21:24:14;11.80;99.90
22321;DHT22;11328;53.928;18.522;2022-09-20T21:26:45;11.80;99.90
22321;DHT22;11328;53.928;18.522;2022-09-20T21:29:14;11.80;99.90
22321;DHT22;11328;53.928;18.522;2022-09-20T21:31:44;11.80;99.90
22321;DHT22;11328;53.928;18.522;2022-09-20T21:34:13;11.70;99.90
22321;DHT22;11328;53.928;18.522;2022-09-20T21:36:42;11.80;99.90
22321;DHT22;11328;53.928;18.522;2022-09-20T21:39:12;11.80;99.90
22321;DHT22;11328;53.928;18.522;2022-09-20T21:41:40;11.80;99.90
22321;DHT22;11328;53.928;18.522;2022-09-20T21:44:07;11.80;99.90
22321;DHT22;11328;53.928;18.522;2022-09-20T21:46:39;11.80;99.90
22321;DHT22;11328;53.928;18.522;2022-09-20T21:49:09;11.80;99.90
22321;DHT22;11328;53.928;18.522;2022-09-20T21:51:38;11.70;99.90
22321;DHT22;11328;53.928;18.522;2022-09-20T21:54:10;11.70;99.90
22321;DHT22;11328;53.928;18.522;2022-09-20T21:56:38;11.60;99.90
22321;DHT22;11328;53.928;18.522;2022-09-20T21:59:06;11.60;99.90
22321;DHT22;11328;53.928;18.522;2022-09-20T22:01:37;11.70;99.90
22321;DHT22;11328;53.928;18.522;2022-09-20T22:04:08;11.60;99.90
22321;DHT22;11328;53.928;18.522;2022-09-20T22:06:38;11.60;99.90
22321;DHT22;11328;53.928;18.522;2022-09-20T22:09:11;11.60;99.90
22321;DHT22;11328;53.928;18.522;2022-09-20T22:11:44;11.60;99.90
22321;DHT22;11328;53.928;18.522;2022-09-20T22:14:15;11.70;99.90
22321;DHT22;11328;53.928;18.522;2022-09-20T22:16:45;11.60;99.90
22321;DHT22;11328;53.928;18.522;2022-09-20T22:19:14;11.70;99.90
22321;DHT22;11328;53.928;18.522;2022-09-20T22:21:48;11.70;99.90
22321;DHT22;11328;53.928;18.522;2022-09-20T22:24:17;11.60;99.90
22321;DHT22;11328;53.928;18.522;2022-09-20T22:26:49;11.70;99.90
22321;DHT22;11328;53.928;18.522;2022-09-20T22:29:17;11.60;99.90
22321;DHT22;11328;53.928;18.522;2022-09-20T22:31:48;11.70;99.90
22321;DHT22;11328;53.928;18.522;2022-09-20T22:34:17;11.60;99.90
22321;DHT22;11328;53.928;18.522;2022-09-20T22:36:46;11.60;99.90
22321;DHT22;11328;53.928;18.522;2022-09-20T22:39:14;11.60;99.90
22321;DHT22;11328;53.928;18.522;2022-09-20T22:41:42;11.50;99.90
22321;DHT22;11328;53.928;18.522;2022-09-20T22:44:10;11.50;99.90
22321;DHT22;11328;53.928;18.522;2022-09-20T22:46:38;11.50;99.90
22321;DHT22;11328;53.928;18.522;2022-09-20T22:49:06;11.50;99.90
22321;DHT22;11328;53.928;18.522;2022-09-20T22:51:34;11.50;99.90
22321;DHT22;11328;53.928;18.522;2022-09-20T22:54:06;11.50;99.90
22321;DHT22;11328;53.928;18.522;2022-09-20T22:56:36;11.50;99.90
22321;DHT22;11328;53.928;18.522;2022-09-20T22:59:09;11.40;99.90
22321;DHT22;11328;53.928;18.522;2022-09-20T23:01:40;11.40;99.90
22321;DHT22;11328;53.928;18.522;2022-09-20T23:04:12;11.30;99.90
22321;DHT22;11328;53.928;18.522;2022-09-20T23:09:17;11.30;99.90
22321;DHT22;11328;53.928;18.522;2022-09-20T23:11:45;11.40;99.90
22321;DHT22;11328;53.928;18.522;2022-09-20T23:14:16;11.40;99.90
22321;DHT22;11328;53.928;18.522;2022-09-20T23:16:45;11.40;99.90
22321;DHT22;11328;53.928;18.522;2022-09-20T23:19:13;11.40;99.90
22321;DHT22;11328;53.928;18.522;2022-09-20T23:21:42;11.40;99.90
22321;DHT22;11328;53.928;18.522;2022-09-20T23:24:12;11.40;99.90
22321;DHT22;11328;53.928;18.522;2022-09-20T23:26:41;11.50;99.90
22321;DHT22;11328;53.928;18.522;2022-09-20T23:29:11;11.60;99.90
22321;DHT22;11328;53.928;18.522;2022-09-20T23:31:41;11.50;99.90
22321;DHT22;11328;53.928;18.522;2022-09-20T23:34:13;11.50;99.90
22321;DHT22;11328;53.928;18.522;2022-09-20T23:36:42;11.50;99.90
22321;DHT22;11328;53.928;18.522;2022-09-20T23:39:10;11.50;99.90
22321;DHT22;11328;53.928;18.522;2022-09-20T23:41:41;11.50;99.90
22321;DHT22;11328;53.928;18.522;2022-09-20T23:44:15;11.50;99.90
22321;DHT22;11328;53.928;18.522;2022-09-20T23:46:42;11.60;99.90
22321;DHT22;11328;53.928;18.522;2022-09-20T23:49:09;11.60;99.90
22321;DHT22;11328;53.928;18.522;2022-09-20T23:51:36;11.60;99.90
22321;DHT22;11328;53.928;18.522;2022-09-20T23:54:03;11.60;99.90
22321;DHT22;11328;53.928;18.522;2022-09-20T23:56:31;11.60;99.90
22321;DHT22;11328;53.928;18.522;2022-09-20T23:58:58;11.70;99.90
